createdAt,value
2018-12-27T00:01:43.130Z,55.48
2018-12-27T00:04:23.664Z,46.88
2018-12-27T00:07:04.909Z,44.58
2018-12-27T00:09:46.333Z,45.65
2018-12-27T00:12:27.056Z,42.93
2018-12-27T00:15:07.965Z,42.73
2018-12-27T00:17:49.156Z,41.37
2018-12-27T00:20:29.911Z,46.70
2018-12-27T00:23:10.799Z,40.67
2018-12-27T00:25:51.474Z,45.08
2018-12-27T00:28:20.583Z,39.13
2018-12-27T00:30:49.724Z,43.55
2018-12-27T00:33:37.949Z,49.53
2018-12-27T00:36:18.433Z,46.05
2018-12-27T00:38:59.354Z,43.87
2018-12-27T00:41:40.039Z,44.63
2018-12-27T00:44:21.137Z,45.12
2018-12-27T00:47:01.764Z,45.98
2018-12-27T00:49:42.708Z,49.90
2018-12-27T00:52:23.590Z,53.20
2018-12-27T00:55:04.622Z,49.42
2018-12-27T00:57:45.281Z,38.53
2018-12-27T01:00:26.155Z,46.25
2018-12-27T01:03:11.034Z,43.08
2018-12-27T01:05:50.042Z,47.05
2018-12-27T01:08:30.697Z,46.48
2018-12-27T01:11:12.046Z,41.53
2018-12-27T01:13:52.472Z,45.75
2018-12-27T01:16:33.165Z,36.20
2018-12-27T01:19:13.886Z,41.50
2018-12-27T01:21:54.658Z,44.25
2018-12-27T01:24:35.557Z,46.70
2018-12-27T01:27:16.141Z,37.28
2018-12-27T01:29:56.810Z,44.83
2018-12-27T01:32:37.238Z,37.90
2018-12-27T01:35:17.848Z,37.33
2018-12-27T01:37:58.871Z,40.88
2018-12-27T01:40:39.624Z,38.95
2018-12-27T01:43:20.061Z,35.83
2018-12-27T01:46:01.279Z,34.18
2018-12-27T01:48:41.828Z,40.88
2018-12-27T01:51:22.318Z,42.58
2018-12-27T01:54:03.082Z,41.23
2018-12-27T01:56:44.470Z,39.67
2018-12-27T01:59:25.735Z,40.08
2018-12-27T02:02:06.677Z,30.60
2018-12-27T02:04:47.222Z,35.10
2018-12-27T02:07:27.713Z,36.13
2018-12-27T02:10:08.448Z,36.35
2018-12-27T02:12:49.663Z,36.93
2018-12-27T02:15:30.273Z,42.95
2018-12-27T02:18:11.815Z,36.15
2018-12-27T02:20:52.932Z,33.83
2018-12-27T02:23:34.269Z,33.80
2018-12-27T02:26:15.036Z,28.83
2018-12-27T02:28:56.312Z,31.48
2018-12-27T02:31:37.372Z,33.38
2018-12-27T02:34:18.056Z,32.05
2018-12-27T02:36:58.826Z,29.48
2018-12-27T02:39:40.213Z,26.75
2018-12-27T02:42:21.509Z,31.17
2018-12-27T02:45:02.379Z,36.93
2018-12-27T02:47:43.202Z,40.75
2018-12-27T02:50:24.321Z,39.35
2018-12-27T02:53:05.057Z,34.78
2018-12-27T02:55:46.225Z,33.73
2018-12-27T02:58:26.972Z,37.42
2018-12-27T03:01:07.937Z,33.40
2018-12-27T03:03:49.085Z,36.33
2018-12-27T03:06:18.252Z,30.90
2018-12-27T03:08:47.485Z,33.63
2018-12-27T03:11:35.707Z,38.48
2018-12-27T03:14:04.887Z,37.88
2018-12-27T03:16:53.111Z,33.73
2018-12-27T03:19:34.365Z,30.50
2018-12-27T03:22:15.084Z,34.78
2018-12-27T03:24:56.136Z,36.17
2018-12-27T03:27:37.498Z,34.65
2018-12-27T03:30:18.273Z,35.80
2018-12-27T03:32:58.967Z,39.90
2018-12-27T03:35:40.209Z,36.93
2018-12-27T03:38:21.495Z,37.03
2018-12-27T03:41:02.376Z,41.58
2018-12-27T03:43:43.298Z,27.93
2018-12-27T03:46:24.053Z,30.50
2018-12-27T03:49:05.351Z,37.50
2018-12-27T03:51:46.330Z,40.43
2018-12-27T03:54:27.712Z,41.25
2018-12-27T03:57:08.300Z,32.83
2018-12-27T03:59:49.633Z,33.10
2018-12-27T04:02:30.161Z,40.90
2018-12-27T04:05:10.991Z,38.70
2018-12-27T04:07:52.377Z,33.45
2018-12-27T04:10:33.145Z,35.30
2018-12-27T04:13:13.551Z,36.98
2018-12-27T04:15:54.995Z,36.23
2018-12-27T04:18:36.238Z,31.73
2018-12-27T04:21:16.905Z,36.00
2018-12-27T04:23:57.688Z,36.80
2018-12-27T04:26:38.225Z,37.50
2018-12-27T04:29:18.638Z,34.35
2018-12-27T04:31:59.332Z,31.80
2018-12-27T04:34:40.005Z,33.10
2018-12-27T04:37:21.053Z,40.52
2018-12-27T04:40:01.572Z,38.15
2018-12-27T04:42:42.297Z,35.08
2018-12-27T04:45:23.364Z,29.30
2018-12-27T04:48:03.819Z,29.30
2018-12-27T04:50:44.530Z,29.63
2018-12-27T04:53:25.575Z,30.50
2018-12-27T04:56:06.265Z,31.23
2018-12-27T04:58:47.184Z,37.30
2018-12-27T05:01:27.977Z,30.70
2018-12-27T05:04:08.619Z,32.40
2018-12-27T05:06:49.576Z,34.33
2018-12-27T05:09:30.373Z,30.65
2018-12-27T05:12:11.221Z,27.90
2018-12-27T05:14:52.141Z,35.65
2018-12-27T05:17:33.170Z,29.98
2018-12-27T05:20:13.877Z,37.88
2018-12-27T05:22:54.657Z,32.83
2018-12-27T05:25:35.517Z,26.80
2018-12-27T05:28:16.779Z,31.33
2018-12-27T05:30:58.065Z,35.33
2018-12-27T05:33:38.588Z,37.05
2018-12-27T05:36:19.196Z,31.50
2018-12-27T05:39:00.397Z,34.63
2018-12-27T05:41:40.949Z,36.73
2018-12-27T05:44:21.480Z,29.52
2018-12-27T05:47:01.917Z,34.30
2018-12-27T05:49:43.150Z,34.63
2018-12-27T05:52:24.226Z,33.20
2018-12-27T05:55:05.507Z,37.28
2018-12-27T05:57:46.113Z,37.67
2018-12-27T06:00:15.238Z,36.77
2018-12-27T06:03:03.453Z,38.58
2018-12-27T06:05:33.300Z,36.58
2018-12-27T06:08:21.533Z,37.00
2018-12-27T06:11:02.042Z,38.45
2018-12-27T06:13:42.849Z,35.03
2018-12-27T06:16:23.529Z,37.78
2018-12-27T06:25:15.669Z,30.48
2018-12-27T06:27:56.282Z,36.65
2018-12-27T06:30:37.404Z,40.00
2018-12-27T06:33:18.399Z,33.23
2018-12-27T06:35:59.362Z,40.15
2018-12-27T06:38:40.238Z,39.63
2018-12-27T06:41:20.937Z,41.10
2018-12-27T06:44:01.457Z,37.20
2018-12-27T06:46:42.033Z,36.30
2018-12-27T06:49:23.273Z,35.43
2018-12-27T06:52:04.185Z,36.28
2018-12-27T06:54:44.873Z,38.60
2018-12-27T06:57:26.207Z,35.63
2018-12-27T07:00:06.874Z,41.33
2018-12-27T07:02:47.545Z,44.25
2018-12-27T07:05:28.106Z,41.60
2018-12-27T07:08:08.792Z,40.95
2018-12-27T07:10:49.954Z,37.78
2018-12-27T07:13:30.426Z,33.55
2018-12-27T07:16:11.129Z,40.00
2018-12-27T07:18:51.611Z,40.83
2018-12-27T07:21:32.541Z,32.40
2018-12-27T07:24:13.769Z,45.25
2018-12-27T07:26:54.349Z,43.02
2018-12-27T07:29:35.085Z,35.28
2018-12-27T07:32:15.840Z,36.05
2018-12-27T07:34:56.722Z,40.03
2018-12-27T07:37:38.275Z,40.50
2018-12-27T07:40:19.653Z,37.73
2018-12-27T07:43:00.145Z,41.33
2018-12-27T07:45:40.873Z,37.73
2018-12-27T07:48:21.640Z,42.23
2018-12-27T07:51:02.237Z,40.95
2018-12-27T07:53:31.357Z,46.50
2018-12-27T07:56:00.488Z,37.42
2018-12-27T07:58:29.675Z,39.45
2018-12-27T08:01:17.881Z,35.73
2018-12-27T08:04:06.156Z,43.55
2018-12-27T08:06:47.062Z,37.88
2018-12-27T08:09:27.946Z,43.52
2018-12-27T08:12:09.028Z,39.90
2018-12-27T08:14:49.833Z,39.27
2018-12-27T08:17:30.737Z,45.15
2018-12-27T08:20:11.301Z,38.35
2018-12-27T08:22:56.389Z,39.60
2018-12-27T08:25:34.784Z,48.68
2018-12-27T08:28:15.664Z,47.60
2018-12-27T08:30:56.398Z,43.02
2018-12-27T08:33:37.414Z,37.75
2018-12-27T08:36:17.899Z,42.95
2018-12-27T08:38:58.861Z,43.20
2018-12-27T08:41:39.304Z,37.90
2018-12-27T08:44:20.362Z,47.58
2018-12-27T08:47:01.181Z,44.83
2018-12-27T08:49:41.893Z,41.90
2018-12-27T08:52:22.898Z,37.85
2018-12-27T08:54:52.963Z,46.25
2018-12-27T08:57:22.144Z,42.10
2018-12-27T09:00:03.153Z,45.90
2018-12-27T09:02:44.293Z,51.53
2018-12-27T09:05:25.523Z,40.33
2018-12-27T09:08:06.174Z,47.90
2018-12-27T09:10:47.357Z,47.13
2018-12-27T09:13:28.220Z,45.20
2018-12-27T09:16:09.196Z,44.53
2018-12-27T09:18:50.516Z,42.38
2018-12-27T09:21:31.429Z,39.90
2018-12-27T09:24:12.694Z,46.45
2018-12-27T09:26:53.826Z,45.98
2018-12-27T09:29:34.261Z,57.25
2018-12-27T09:32:16.538Z,46.20
2018-12-27T09:34:56.992Z,47.05
2018-12-27T09:37:37.663Z,59.05
2018-12-27T09:40:18.295Z,50.50
2018-12-27T09:42:59.130Z,62.20
2018-12-27T09:45:39.962Z,54.03
2018-12-27T09:48:21.134Z,55.00
2018-12-27T09:51:01.782Z,52.78
2018-12-27T09:53:42.716Z,54.60
2018-12-27T09:56:23.851Z,50.80
2018-12-27T09:59:04.796Z,49.08
2018-12-27T10:01:45.441Z,50.10
2018-12-27T10:04:26.190Z,60.38
2018-12-27T10:07:06.651Z,49.05
2018-12-27T10:09:47.183Z,49.25
2018-12-27T10:12:28.074Z,46.70
2018-12-27T10:15:08.905Z,54.58
2018-12-27T10:17:49.474Z,51.90
2018-12-27T10:20:30.309Z,47.35
2018-12-27T10:23:11.266Z,46.08
2018-12-27T10:25:52.232Z,50.75
2018-12-27T10:28:33.565Z,47.08
2018-12-27T10:31:15.582Z,48.25
2018-12-27T10:33:56.600Z,45.78
2018-12-27T10:36:37.430Z,45.40
2018-12-27T10:42:01.464Z,40.95
2018-12-27T10:44:42.162Z,49.38
2018-12-27T10:47:23.397Z,48.85
2018-12-27T10:50:04.724Z,57.17
2018-12-27T10:52:45.280Z,44.50
2018-12-27T10:55:26.247Z,46.50
2018-12-27T10:58:07.511Z,46.85
2018-12-27T11:00:48.430Z,50.48
2018-12-27T11:03:30.655Z,52.62
2018-12-27T11:06:11.714Z,55.52
2018-12-27T11:08:52.970Z,56.90
2018-12-27T11:11:22.195Z,51.13
2018-12-27T11:14:10.513Z,54.67
2018-12-27T11:16:58.755Z,62.38
2018-12-27T11:19:39.942Z,54.55
2018-12-27T11:22:20.706Z,51.42
2018-12-27T11:24:49.824Z,49.67
2018-12-27T11:27:38.050Z,47.45
2018-12-27T11:30:07.761Z,39.13
2018-12-27T11:32:56.058Z,45.80
2018-12-27T11:35:25.760Z,48.23
2018-12-27T11:38:14.013Z,46.20
2018-12-27T11:40:43.158Z,45.63
2018-12-27T11:43:31.408Z,49.83
2018-12-27T11:46:19.625Z,49.70
2018-12-27T11:49:00.474Z,52.45
2018-12-27T11:51:41.662Z,55.08
2018-12-27T11:54:10.786Z,52.53
2018-12-27T11:56:59.072Z,56.70
2018-12-27T11:59:40.229Z,55.85
2018-12-27T12:02:21.224Z,61.20
2018-12-27T12:05:01.936Z,61.63
2018-12-27T12:07:43.292Z,60.80
2018-12-27T12:10:24.726Z,54.18
2018-12-27T12:13:05.580Z,64.35
2018-12-27T12:15:46.500Z,65.87
2018-12-27T12:18:27.227Z,61.80
2018-12-27T12:21:07.970Z,58.35
2018-12-27T12:23:48.700Z,61.95
2018-12-27T12:26:29.412Z,72.90
2018-12-27T12:29:10.280Z,56.80
2018-12-27T12:31:50.712Z,61.73
2018-12-27T12:34:31.442Z,59.60
2018-12-27T12:37:00.640Z,53.78
2018-12-27T12:39:51.087Z,58.40
2018-12-27T12:42:33.141Z,56.73
2018-12-27T12:45:02.398Z,50.35
2018-12-27T12:47:31.572Z,59.13
2018-12-27T12:50:19.780Z,45.52
2018-12-27T12:53:08.009Z,42.67
2018-12-27T12:55:50.065Z,46.48
2018-12-27T12:58:30.993Z,38.60
2018-12-27T13:01:11.918Z,48.30
2018-12-27T13:03:52.664Z,40.38
2018-12-27T13:06:33.362Z,46.30
2018-12-27T13:09:14.690Z,45.23
2018-12-27T13:11:55.262Z,39.08
2018-12-27T13:14:36.480Z,46.58
2018-12-27T13:17:17.363Z,39.30
2018-12-27T13:19:57.824Z,41.58
2018-12-27T13:22:38.803Z,43.83
2018-12-27T13:25:19.717Z,51.90
2018-12-27T13:28:00.424Z,44.60
2018-12-27T13:30:40.839Z,41.90
2018-12-27T13:33:22.062Z,45.33
2018-12-27T13:36:03.461Z,52.43
2018-12-27T13:38:44.791Z,44.53
2018-12-27T13:44:24.730Z,49.88
2018-12-27T13:47:05.633Z,52.23
2018-12-27T13:49:47.323Z,56.25
2018-12-27T13:52:28.911Z,57.98
2018-12-27T13:55:09.627Z,45.58
2018-12-27T13:57:50.861Z,45.43
2018-12-27T14:00:31.633Z,52.50
2018-12-27T14:03:12.109Z,48.73
2018-12-27T14:05:52.598Z,44.08
2018-12-27T14:08:33.688Z,57.67
2018-12-27T14:11:14.565Z,50.30
2018-12-27T14:13:55.447Z,49.50
2018-12-27T14:16:24.696Z,46.92
2018-12-27T14:19:12.993Z,52.25
2018-12-27T14:21:54.212Z,48.95
2018-12-27T14:24:34.715Z,51.65
2018-12-27T14:27:15.581Z,45.88
2018-12-27T14:29:56.477Z,56.05
2018-12-27T14:32:37.762Z,57.27
2018-12-27T14:35:18.861Z,51.10
2018-12-27T14:37:59.571Z,51.15
2018-12-27T14:40:40.812Z,51.58
2018-12-27T14:43:21.349Z,52.30
2018-12-27T14:46:01.780Z,51.68
2018-12-27T14:48:43.486Z,52.13
2018-12-27T14:51:24.765Z,50.35
2018-12-27T14:54:05.648Z,47.85
2018-12-27T14:56:46.557Z,55.88
2018-12-27T14:59:27.727Z,44.30
2018-12-27T15:02:08.417Z,47.30
2018-12-27T15:04:49.158Z,53.50
2018-12-27T15:07:30.437Z,44.13
2018-12-27T15:10:11.414Z,47.60
2018-12-27T15:12:52.337Z,44.67
2018-12-27T15:15:33.477Z,51.50
2018-12-27T15:18:14.539Z,45.10
2018-12-27T15:20:55.333Z,45.12
2018-12-27T15:23:36.316Z,41.55
2018-12-27T15:26:16.905Z,36.95
2018-12-27T15:28:57.860Z,39.60
2018-12-27T15:31:38.671Z,39.85
2018-12-27T15:34:19.650Z,44.30
2018-12-27T15:37:00.462Z,45.92
2018-12-27T15:39:41.229Z,41.23
2018-12-27T15:42:22.175Z,45.90
2018-12-27T15:45:02.974Z,39.80
2018-12-27T15:47:43.385Z,39.88
2018-12-27T15:50:24.658Z,41.33
2018-12-27T15:53:05.776Z,45.17
2018-12-27T15:55:46.682Z,43.78
2018-12-27T15:58:27.129Z,40.20
2018-12-27T16:01:07.683Z,44.27
2018-12-27T16:03:48.261Z,44.42
2018-12-27T16:06:28.843Z,35.73
2018-12-27T16:09:09.593Z,43.80
2018-12-27T16:11:50.161Z,44.33
2018-12-27T16:14:31.508Z,40.08
2018-12-27T16:17:12.153Z,46.40
2018-12-27T16:19:52.694Z,41.00
2018-12-27T16:22:33.403Z,44.88
2018-12-27T16:25:13.881Z,40.40
2018-12-27T16:27:54.873Z,43.68
2018-12-27T16:30:35.988Z,45.12
2018-12-27T16:33:17.093Z,43.28
2018-12-27T16:35:57.632Z,49.45
2018-12-27T16:38:38.934Z,44.70
2018-12-27T16:41:19.913Z,45.83
2018-12-27T16:44:00.365Z,46.33
2018-12-27T16:46:41.645Z,45.98
2018-12-27T16:49:23.078Z,45.25
2018-12-27T16:52:04.408Z,40.85
2018-12-27T16:54:45.781Z,49.45
2018-12-27T16:57:26.381Z,40.67
2018-12-27T17:00:06.975Z,41.18
2018-12-27T17:02:48.133Z,44.95
2018-12-27T17:05:28.699Z,44.85
2018-12-27T17:08:09.712Z,44.55
2018-12-27T17:10:51.056Z,48.75
2018-12-27T17:13:31.866Z,46.13
2018-12-27T17:16:13.339Z,47.30
2018-12-27T17:18:53.868Z,47.98
2018-12-27T17:21:34.414Z,47.93
2018-12-27T17:24:16.349Z,48.75
2018-12-27T17:26:57.348Z,52.23
2018-12-27T17:29:37.776Z,50.67
2018-12-27T17:32:06.958Z,51.85
2018-12-27T17:34:36.068Z,53.80
2018-12-27T17:37:24.293Z,58.15
2018-12-27T17:40:05.294Z,57.65
2018-12-27T17:42:46.042Z,52.30
2018-12-27T17:45:26.965Z,53.90
2018-12-27T17:48:07.581Z,51.33
2018-12-27T17:50:48.563Z,50.05
2018-12-27T17:53:29.502Z,58.33
2018-12-27T17:56:10.685Z,44.45
2018-12-27T17:58:51.521Z,52.48
2018-12-27T18:01:32.862Z,49.70
2018-12-27T18:04:13.652Z,49.98
2018-12-27T18:06:54.200Z,57.90
2018-12-27T18:09:35.449Z,50.80
2018-12-27T18:12:16.153Z,51.35
2018-12-27T18:14:56.647Z,46.25
2018-12-27T18:17:37.412Z,49.35
2018-12-27T18:20:18.272Z,47.53
2018-12-27T18:22:59.362Z,54.95
2018-12-27T18:25:41.637Z,45.88
2018-12-27T18:28:23.085Z,47.48
2018-12-27T18:31:03.848Z,55.33
2018-12-27T18:33:44.747Z,48.15
2018-12-27T18:36:25.998Z,46.13
2018-12-27T18:39:06.813Z,48.00
2018-12-27T18:41:47.393Z,53.58
2018-12-27T18:44:27.854Z,49.42
2018-12-27T18:47:09.158Z,45.28
2018-12-27T18:49:50.578Z,41.63
2018-12-27T18:52:19.913Z,41.37
2018-12-27T18:54:49.109Z,35.58
2018-12-27T18:57:18.262Z,47.50
2018-12-27T18:59:47.443Z,42.53
2018-12-27T19:02:41.751Z,43.13
2018-12-27T19:05:25.707Z,55.10
2018-12-27T19:08:14.060Z,50.83
2018-12-27T19:10:55.149Z,45.43
2018-12-27T19:13:36.157Z,45.60
2018-12-27T19:16:16.788Z,43.85
2018-12-27T19:18:57.728Z,55.83
2018-12-27T19:21:35.780Z,46.33
2018-12-27T19:24:24.005Z,52.23
2018-12-27T19:27:12.231Z,59.65
2018-12-27T19:29:53.357Z,49.45
2018-12-27T19:32:34.307Z,51.35
2018-12-27T19:35:14.720Z,46.20
2018-12-27T19:37:55.995Z,60.73
2018-12-27T19:40:37.012Z,45.15
2018-12-27T19:43:17.746Z,44.40
2018-12-27T19:45:58.707Z,50.78
2018-12-27T19:48:39.476Z,58.25
2018-12-27T19:51:20.552Z,54.73
2018-12-27T19:54:01.955Z,50.00
2018-12-27T19:56:42.932Z,50.92
2018-12-27T19:59:23.512Z,53.30
2018-12-27T20:02:04.243Z,56.20
2018-12-27T20:04:44.953Z,52.17
2018-12-27T20:07:25.956Z,46.68
2018-12-27T20:10:06.812Z,57.62
2018-12-27T20:12:47.641Z,57.13
2018-12-27T20:15:28.784Z,62.67
2018-12-27T20:18:09.539Z,50.28
2018-12-27T20:20:50.177Z,58.52
2018-12-27T20:23:31.245Z,56.25
2018-12-27T20:26:12.585Z,62.70
2018-12-27T20:28:53.809Z,59.95
2018-12-27T20:31:35.221Z,62.93
2018-12-27T20:34:16.132Z,71.80
2018-12-27T20:36:45.289Z,69.97
2018-12-27T20:39:33.575Z,74.32
2018-12-27T20:42:21.906Z,78.25
2018-12-27T20:45:03.230Z,70.67
2018-12-27T20:47:43.697Z,71.85
2018-12-27T20:50:24.710Z,82.88
2018-12-27T20:53:05.787Z,76.80
2018-12-27T20:55:46.268Z,83.80
2018-12-27T20:58:26.840Z,76.82
2018-12-27T21:01:07.701Z,78.78
2018-12-27T21:03:36.877Z,80.10
2018-12-27T21:06:25.118Z,81.15
2018-12-27T21:09:06.465Z,65.65
2018-12-27T21:11:46.951Z,73.47
2018-12-27T21:14:28.126Z,79.80
2018-12-27T21:17:08.669Z,70.70
2018-12-27T21:19:50.070Z,79.03
2018-12-27T21:22:30.654Z,72.17
2018-12-27T21:25:11.989Z,69.53
2018-12-27T21:27:52.413Z,80.85
2018-12-27T21:30:33.339Z,85.87
2018-12-27T21:33:13.798Z,81.70
2018-12-27T21:35:54.320Z,84.42
2018-12-27T21:38:34.751Z,81.42
2018-12-27T21:41:15.669Z,77.35
2018-12-27T21:43:56.297Z,78.72
2018-12-27T21:46:37.453Z,75.55
2018-12-27T21:49:18.197Z,72.87
2018-12-27T21:51:58.613Z,54.95
2018-12-27T21:54:27.732Z,73.97
2018-12-27T21:56:56.881Z,65.17
2018-12-27T21:59:45.173Z,80.22
2018-12-27T22:02:26.093Z,64.82
2018-12-27T22:05:07.233Z,63.75
2018-12-27T22:07:48.049Z,63.78
2018-12-27T22:10:28.851Z,71.55
2018-12-27T22:13:09.372Z,56.33
2018-12-27T22:15:50.672Z,70.37
2018-12-27T22:18:31.729Z,67.32
2018-12-27T22:21:13.061Z,69.07
2018-12-27T22:23:54.286Z,69.10
2018-12-27T22:26:34.769Z,54.73
2018-12-27T22:29:15.236Z,59.83
2018-12-27T22:31:56.389Z,62.70
2018-12-27T22:34:37.274Z,67.30
2018-12-27T22:37:18.054Z,64.42
2018-12-27T22:39:59.016Z,71.80
2018-12-27T22:42:40.371Z,71.80
2018-12-27T22:45:21.261Z,81.90
2018-12-27T22:48:02.663Z,73.42
2018-12-27T22:50:43.873Z,86.70
2018-12-27T22:53:24.518Z,84.42
2018-12-27T22:56:12.828Z,92.60
2018-12-27T22:59:01.038Z,66.45
2018-12-27T23:01:42.408Z,62.83
2018-12-27T23:04:22.789Z,80.85
2018-12-27T23:07:03.752Z,97.12
2018-12-27T23:09:44.685Z,84.32
2018-12-27T23:12:25.865Z,86.63
2018-12-27T23:15:06.566Z,84.25
2018-12-27T23:17:47.301Z,90.30
2018-12-27T23:20:27.974Z,98.87
2018-12-27T23:23:08.461Z,80.40
2018-12-27T23:25:49.790Z,81.17
2018-12-27T23:28:31.157Z,80.97
2018-12-27T23:31:11.753Z,79.60
2018-12-27T23:33:52.911Z,75.20
2018-12-27T23:36:33.758Z,78.37
2018-12-27T23:39:14.391Z,92.08
2018-12-27T23:41:55.253Z,75.10
2018-12-27T23:44:36.621Z,83.78
2018-12-27T23:47:17.673Z,86.32
2018-12-27T23:49:58.529Z,89.22
2018-12-27T23:52:39.589Z,90.10
2018-12-27T23:55:20.441Z,82.27
2018-12-27T23:58:00.872Z,89.97
